createdAt,value
2023-05-20T00:01:21.022Z,70.00
2023-05-20T00:03:47.954Z,70.20
2023-05-20T00:06:14.919Z,70.20
2023-05-20T00:08:41.788Z,70.10
2023-05-20T00:11:08.677Z,70.60
2023-05-20T00:13:36.132Z,70.90
2023-05-20T00:16:03.190Z,71.20
2023-05-20T00:18:30.035Z,71.50
2023-05-20T00:20:56.918Z,71.70
2023-05-20T00:23:23.850Z,71.90
2023-05-20T00:25:50.814Z,72.30
2023-05-20T00:28:17.609Z,72.60
2023-05-20T00:30:44.440Z,72.90
2023-05-20T00:33:12.695Z,72.90
2023-05-20T00:35:39.613Z,73.20
2023-05-20T00:38:06.730Z,73.80
2023-05-20T00:40:33.636Z,74.10
2023-05-20T00:43:00.544Z,74.50
2023-05-20T00:45:27.503Z,74.80
2023-05-20T00:47:57.285Z,74.80
2023-05-20T00:50:24.332Z,75.20
2023-05-20T00:52:51.707Z,75.50
2023-05-20T00:55:18.769Z,75.40
2023-05-20T00:57:45.713Z,75.40
2023-05-20T01:00:14.029Z,75.20
2023-05-20T01:02:41.026Z,75.40
2023-05-20T01:05:08.041Z,75.60
2023-05-20T01:07:34.981Z,75.70
2023-05-20T01:10:02.345Z,76.10
2023-05-20T01:12:34.952Z,76.20
2023-05-20T01:15:10.814Z,76.30
2023-05-20T01:17:47.089Z,76.60
2023-05-20T01:20:52.274Z,76.70
2023-05-20T01:23:20.442Z,76.80
2023-05-20T01:25:47.309Z,77.00
2023-05-20T01:28:17.803Z,77.20
2023-05-20T01:30:52.386Z,77.50
2023-05-20T01:33:23.590Z,77.50
2023-05-20T01:35:51.256Z,77.60
2023-05-20T01:38:19.594Z,77.80
2023-05-20T01:40:48.603Z,77.90
2023-05-20T01:43:17.917Z,78.00
2023-05-20T01:45:45.462Z,78.20
2023-05-20T01:48:12.393Z,78.40
2023-05-20T01:50:40.308Z,78.60
2023-05-20T01:53:09.558Z,79.10
2023-05-20T01:55:36.858Z,79.10
2023-05-20T01:58:03.841Z,79.50
2023-05-20T02:00:32.576Z,79.90
2023-05-20T02:02:59.717Z,80.30
2023-05-20T02:05:26.656Z,80.60
2023-05-20T02:07:53.555Z,80.60
2023-05-20T02:10:21.008Z,81.00
2023-05-20T02:12:49.270Z,81.30
2023-05-20T02:15:16.412Z,81.40
2023-05-20T02:17:46.055Z,81.80
2023-05-20T02:20:14.424Z,82.00
2023-05-20T02:22:41.260Z,82.00
2023-05-20T02:25:08.654Z,82.30
2023-05-20T02:27:36.806Z,82.80
2023-05-20T02:30:04.016Z,83.40
2023-05-20T02:32:30.817Z,83.20
2023-05-20T02:34:57.718Z,83.20
2023-05-20T02:37:24.698Z,83.70
2023-05-20T02:39:51.562Z,83.80
2023-05-20T02:42:18.356Z,84.10
2023-05-20T02:44:45.504Z,84.40
2023-05-20T02:47:13.879Z,84.60
2023-05-20T02:49:41.451Z,84.90
2023-05-20T02:52:09.020Z,86.40
2023-05-20T02:54:36.043Z,85.30
2023-05-20T02:57:03.464Z,85.40
2023-05-20T02:59:30.662Z,85.40
2023-05-20T03:01:57.971Z,85.40
2023-05-20T03:04:26.264Z,86.00
2023-05-20T03:06:53.829Z,86.40
2023-05-20T03:09:22.677Z,86.40
2023-05-20T03:11:50.028Z,86.40
2023-05-20T03:14:17.126Z,86.20
2023-05-20T03:16:44.340Z,86.40
2023-05-20T03:19:12.435Z,86.60
2023-05-20T03:21:39.358Z,86.80
2023-05-20T03:24:06.309Z,87.10
2023-05-20T03:26:33.928Z,87.10
2023-05-20T03:29:00.875Z,87.60
2023-05-20T03:31:27.803Z,87.80
2023-05-20T03:33:54.730Z,88.20
2023-05-20T03:36:21.674Z,88.70
2023-05-20T03:38:48.770Z,88.80
2023-05-20T03:41:15.995Z,89.00
2023-05-20T03:43:42.900Z,89.20
2023-05-20T03:46:10.657Z,89.50
2023-05-20T03:48:37.584Z,89.70
2023-05-20T03:51:04.868Z,89.90
2023-05-20T03:53:32.476Z,90.00
2023-05-20T03:55:59.435Z,89.90
2023-05-20T03:58:26.400Z,90.00
2023-05-20T04:00:53.259Z,90.20
2023-05-20T04:03:20.463Z,90.30
2023-05-20T04:05:48.620Z,90.30
2023-05-20T04:08:21.986Z,90.50
2023-05-20T04:10:49.389Z,90.40
2023-05-20T04:13:16.385Z,90.60
2023-05-20T04:15:43.468Z,90.70
2023-05-20T04:18:13.196Z,90.80
2023-05-20T04:20:43.745Z,90.80
2023-05-20T04:23:13.506Z,90.90
2023-05-20T04:25:44.575Z,91.00
2023-05-20T04:28:14.091Z,91.10
2023-05-20T04:30:42.250Z,91.20
2023-05-20T04:33:11.161Z,91.40
2023-05-20T04:35:41.774Z,92.00
2023-05-20T04:38:09.803Z,91.60
2023-05-20T04:40:36.700Z,91.60
2023-05-20T04:43:04.070Z,91.60
2023-05-20T04:45:31.594Z,91.70
2023-05-20T04:47:58.666Z,91.80
2023-05-20T04:50:25.558Z,91.80
2023-05-20T04:52:52.480Z,92.00
2023-05-20T04:55:21.496Z,92.10
2023-05-20T04:57:48.566Z,92.20
2023-05-20T05:00:16.039Z,92.20
2023-05-20T05:02:43.276Z,92.40
2023-05-20T05:05:10.840Z,92.40
2023-05-20T05:07:38.796Z,92.60
2023-05-20T05:10:06.527Z,92.60
2023-05-20T05:12:33.492Z,92.50
2023-05-20T05:15:00.516Z,92.80
2023-05-20T05:17:28.835Z,92.80
2023-05-20T05:19:57.332Z,93.00
2023-05-20T05:22:25.562Z,92.90
2023-05-20T05:24:52.522Z,92.90
2023-05-20T05:27:19.360Z,92.90
2023-05-20T05:29:46.214Z,92.70
2023-05-20T05:32:13.163Z,92.90
2023-05-20T05:34:40.203Z,92.90
2023-05-20T05:37:07.059Z,92.80
2023-05-20T05:39:37.450Z,92.80
2023-05-20T05:42:05.045Z,92.80
2023-05-20T05:44:32.444Z,92.80
2023-05-20T05:46:59.598Z,92.80
2023-05-20T05:49:27.505Z,93.20
2023-05-20T05:51:55.423Z,92.90
2023-05-20T05:54:22.742Z,93.10
2023-05-20T05:56:53.774Z,93.20
2023-05-20T05:59:21.207Z,93.30
2023-05-20T06:01:48.234Z,93.20
2023-05-20T06:04:15.787Z,93.10
2023-05-20T06:06:42.596Z,93.20
2023-05-20T06:09:09.336Z,93.20
2023-05-20T06:11:36.848Z,93.20
2023-05-20T06:14:03.642Z,93.20
2023-05-20T06:16:30.397Z,93.30
2023-05-20T06:19:00.879Z,93.50
2023-05-20T06:21:31.527Z,93.50
2023-05-20T06:23:58.384Z,93.50
2023-05-20T06:26:25.174Z,94.10
2023-05-20T06:28:53.203Z,93.60
2023-05-20T06:31:20.399Z,93.80
2023-05-20T06:33:48.093Z,93.90
2023-05-20T06:36:15.829Z,93.90
2023-05-20T06:38:42.663Z,94.00
2023-05-20T06:41:11.881Z,94.10
2023-05-20T06:43:38.774Z,94.10
2023-05-20T06:46:25.861Z,94.10
2023-05-20T06:49:00.812Z,94.20
2023-05-20T06:51:28.217Z,94.20
2023-05-20T06:53:55.351Z,94.10
2023-05-20T06:56:22.502Z,94.10
2023-05-20T06:58:49.379Z,94.00
2023-05-20T07:01:18.124Z,94.10
2023-05-20T07:03:46.281Z,94.20
2023-05-20T07:06:13.752Z,94.40
2023-05-20T07:08:40.750Z,94.40
2023-05-20T07:11:08.580Z,94.70
2023-05-20T07:13:35.620Z,94.80
2023-05-20T07:16:02.534Z,94.90
2023-05-20T07:18:29.507Z,94.70
2023-05-20T07:20:57.704Z,94.70
2023-05-20T07:23:45.193Z,94.50
2023-05-20T07:26:12.046Z,94.60
2023-05-20T07:28:39.002Z,94.60
2023-05-20T07:31:05.777Z,94.60
2023-05-20T07:33:35.862Z,94.70
2023-05-20T07:36:03.619Z,94.70
2023-05-20T07:38:32.277Z,94.60
2023-05-20T07:41:01.751Z,94.80
2023-05-20T07:43:28.528Z,94.90
2023-05-20T07:45:56.273Z,95.00
2023-05-20T07:48:23.107Z,94.90
2023-05-20T07:50:49.860Z,94.80
2023-05-20T07:53:18.088Z,94.90
2023-05-20T07:55:45.094Z,94.60
2023-05-20T07:58:11.831Z,94.30
2023-05-20T08:00:40.162Z,94.30
2023-05-20T08:03:08.610Z,94.20
2023-05-20T08:05:49.657Z,94.30
2023-05-20T08:08:17.271Z,94.20
2023-05-20T08:10:57.858Z,94.20
2023-05-20T08:13:26.284Z,94.20
2023-05-20T08:15:54.679Z,94.10
2023-05-20T08:18:21.681Z,93.90
2023-05-20T08:20:48.556Z,93.90
2023-05-20T08:23:15.656Z,93.80
2023-05-20T08:25:42.459Z,93.80
2023-05-20T08:28:11.047Z,93.90
2023-05-20T08:30:38.305Z,93.90
2023-05-20T08:33:05.356Z,94.10
2023-05-20T08:35:32.426Z,94.20
2023-05-20T08:37:59.247Z,94.30
2023-05-20T08:40:26.746Z,94.40
2023-05-20T08:42:53.658Z,94.30
2023-05-20T08:45:21.628Z,94.20
2023-05-20T08:47:49.414Z,94.30
2023-05-20T08:50:16.378Z,94.40
2023-05-20T08:52:44.726Z,94.60
2023-05-20T08:55:14.655Z,94.40
2023-05-20T08:57:42.061Z,94.30
2023-05-20T09:00:13.422Z,94.20
2023-05-20T09:02:40.973Z,94.40
2023-05-20T09:05:09.347Z,94.70
2023-05-20T09:07:36.246Z,94.60
2023-05-20T09:10:03.581Z,94.30
2023-05-20T09:12:30.389Z,94.40
2023-05-20T09:14:57.091Z,94.40
2023-05-20T09:17:24.138Z,94.30
2023-05-20T09:19:51.706Z,94.00
2023-05-20T09:22:25.701Z,94.20
2023-05-20T09:24:52.746Z,94.20
2023-05-20T09:27:20.226Z,94.00
2023-05-20T09:29:48.507Z,94.20
2023-05-20T09:32:15.843Z,94.50
2023-05-20T09:34:43.137Z,93.70
2023-05-20T09:37:09.952Z,93.80
2023-05-20T09:39:59.756Z,93.90
2023-05-20T09:42:28.988Z,94.00
2023-05-20T09:44:57.978Z,94.00
2023-05-20T09:47:27.918Z,94.00
2023-05-20T09:49:54.714Z,94.00
2023-05-20T09:52:21.809Z,94.10
2023-05-20T09:54:49.563Z,94.30
2023-05-20T09:57:16.516Z,94.30
2023-05-20T09:59:44.022Z,94.10
2023-05-20T10:02:11.080Z,94.20
2023-05-20T10:04:42.714Z,94.00
2023-05-20T10:07:09.509Z,93.70
2023-05-20T10:09:53.267Z,93.70
2023-05-20T10:12:28.005Z,93.90
2023-05-20T10:14:54.788Z,93.90
2023-05-20T10:17:25.918Z,93.80
2023-05-20T10:19:58.055Z,93.70
2023-05-20T10:22:32.021Z,93.60
2023-05-20T10:25:00.290Z,93.40
2023-05-20T10:27:27.286Z,93.10
2023-05-20T10:29:55.700Z,93.10
2023-05-20T10:32:25.933Z,93.30
2023-05-20T10:34:52.965Z,93.50
2023-05-20T10:37:31.964Z,93.90
2023-05-20T10:40:25.222Z,94.10
2023-05-20T10:42:52.001Z,94.30
2023-05-20T10:45:28.705Z,94.50
2023-05-20T10:47:57.006Z,94.40
2023-05-20T10:50:34.539Z,94.10
2023-05-20T10:53:18.606Z,94.00
2023-05-20T10:55:53.398Z,94.00
2023-05-20T10:58:21.437Z,93.80
2023-05-20T11:00:50.830Z,93.70
2023-05-20T11:03:18.631Z,93.60
2023-05-20T11:05:47.391Z,93.10
2023-05-20T11:10:47.270Z,93.10
2023-05-20T11:13:15.341Z,92.50
2023-05-20T11:15:42.346Z,92.40
2023-05-20T11:18:10.891Z,92.90
2023-05-20T11:20:37.711Z,91.90
2023-05-20T11:23:05.786Z,91.60
2023-05-20T11:25:33.190Z,91.80
2023-05-20T11:27:59.902Z,91.80
2023-05-20T11:30:26.774Z,91.70
2023-05-20T11:33:12.414Z,91.40
2023-05-20T11:35:45.051Z,91.50
2023-05-20T11:38:11.856Z,91.50
2023-05-20T11:40:50.439Z,91.20
2023-05-20T11:43:18.700Z,91.50
2023-05-20T11:45:46.262Z,91.50
2023-05-20T11:48:15.582Z,91.30
2023-05-20T11:50:43.762Z,91.20
2023-05-20T11:53:11.555Z,91.00
2023-05-20T11:56:04.645Z,91.10
2023-05-20T11:58:31.745Z,91.20
2023-05-20T12:01:05.826Z,91.30
2023-05-20T12:03:41.316Z,91.20
2023-05-20T12:06:08.187Z,91.30
2023-05-20T12:08:34.962Z,91.50
2023-05-20T12:11:01.873Z,91.50
2023-05-20T12:13:28.754Z,91.50
2023-05-20T12:15:55.617Z,91.60
2023-05-20T12:18:22.966Z,91.30
2023-05-20T12:20:49.691Z,91.40
2023-05-20T12:23:16.549Z,91.60
2023-05-20T12:25:47.182Z,91.80
2023-05-20T12:28:14.106Z,91.90
2023-05-20T12:30:41.169Z,91.90
2023-05-20T12:33:09.044Z,92.20
2023-05-20T12:35:39.569Z,92.30
2023-05-20T12:38:06.959Z,92.20
2023-05-20T12:40:34.453Z,92.80
2023-05-20T12:43:02.293Z,92.10
2023-05-20T12:45:29.032Z,92.20
2023-05-20T12:47:56.314Z,92.20
2023-05-20T12:50:23.783Z,91.80
2023-05-20T12:52:50.622Z,91.50
2023-05-20T12:55:17.384Z,91.70
2023-05-20T12:57:44.784Z,91.70
2023-05-20T13:00:11.918Z,91.70
2023-05-20T13:02:40.081Z,91.50
2023-05-20T13:05:07.258Z,90.70
2023-05-20T13:07:34.247Z,90.40
2023-05-20T13:10:01.222Z,90.40
2023-05-20T13:12:28.177Z,90.40
2023-05-20T13:14:54.875Z,89.10
2023-05-20T13:17:21.656Z,89.30
2023-05-20T13:19:48.823Z,89.50
2023-05-20T13:22:15.779Z,90.00
2023-05-20T13:24:42.813Z,90.10
2023-05-20T13:27:09.583Z,90.00
2023-05-20T13:29:37.340Z,90.30
2023-05-20T13:32:05.222Z,90.10
2023-05-20T13:34:31.956Z,90.00
2023-05-20T13:36:59.876Z,90.20
2023-05-20T13:39:27.149Z,90.20
2023-05-20T13:41:55.062Z,90.20
2023-05-20T13:44:21.858Z,90.20
2023-05-20T13:46:48.676Z,90.40
2023-05-20T13:49:15.609Z,90.60
2023-05-20T13:51:42.414Z,90.80
2023-05-20T13:54:09.215Z,90.90
2023-05-20T13:56:36.040Z,90.80
2023-05-20T13:59:02.739Z,90.90
2023-05-20T14:01:30.790Z,91.10
2023-05-20T14:03:57.666Z,91.10
2023-05-20T14:06:24.841Z,91.10
2023-05-20T14:08:54.078Z,91.20
2023-05-20T14:11:21.809Z,91.40
2023-05-20T14:13:48.630Z,91.60
2023-05-20T14:16:15.758Z,91.70
2023-05-20T14:18:42.618Z,91.50
2023-05-20T14:21:09.440Z,91.30
2023-05-20T14:23:36.168Z,91.20
2023-05-20T14:26:03.167Z,91.20
2023-05-20T14:28:29.896Z,91.20
2023-05-20T14:30:56.729Z,91.40
2023-05-20T14:33:23.442Z,91.30
2023-05-20T14:35:50.195Z,91.20
2023-05-20T14:38:18.137Z,90.90
2023-05-20T14:40:44.904Z,91.20
2023-05-20T14:43:11.631Z,91.10
2023-05-20T14:45:38.468Z,91.30
2023-05-20T14:48:05.329Z,91.30
2023-05-20T14:50:32.217Z,91.20
2023-05-20T14:52:58.944Z,91.40
2023-05-20T14:55:25.752Z,91.70
2023-05-20T14:57:52.800Z,91.70
2023-05-20T15:00:19.592Z,91.80
2023-05-20T15:02:46.457Z,91.90
2023-05-20T15:05:13.263Z,91.90
2023-05-20T15:07:40.079Z,91.80
2023-05-20T15:10:07.760Z,91.90
2023-05-20T15:12:34.622Z,91.90
2023-05-20T15:15:01.467Z,91.90
2023-05-20T15:17:28.206Z,92.00
2023-05-20T15:19:55.239Z,92.20
2023-05-20T15:22:22.002Z,92.30
2023-05-20T15:24:48.776Z,92.30
2023-05-20T15:27:15.486Z,92.10
2023-05-20T15:29:42.264Z,91.80
2023-05-20T15:32:08.975Z,91.70
2023-05-20T15:34:35.746Z,91.50
2023-05-20T15:37:02.556Z,91.80
2023-05-20T15:39:29.319Z,91.20
2023-05-20T15:41:56.076Z,91.30
2023-05-20T15:44:22.849Z,91.20
2023-05-20T15:46:49.540Z,91.20
2023-05-20T15:49:16.390Z,91.50
2023-05-20T15:51:52.350Z,91.30
2023-05-20T15:54:29.063Z,90.40
2023-05-20T15:56:55.847Z,89.40
2023-05-20T15:59:22.919Z,87.80
2023-05-20T16:01:49.782Z,86.20
2023-05-20T16:04:16.813Z,84.40
2023-05-20T16:06:43.683Z,83.40
2023-05-20T16:09:10.617Z,82.50
2023-05-20T16:11:37.364Z,82.20
2023-05-20T16:14:04.161Z,81.20
2023-05-20T16:16:31.340Z,80.20
2023-05-20T16:18:59.503Z,79.80
2023-05-20T16:21:26.338Z,79.80
2023-05-20T16:23:53.227Z,79.60
2023-05-20T16:26:19.995Z,79.60
2023-05-20T16:28:47.167Z,80.00
2023-05-20T16:31:14.004Z,79.80
2023-05-20T16:33:40.905Z,79.60
2023-05-20T16:36:07.672Z,79.50
2023-05-20T16:38:34.646Z,79.50
2023-05-20T16:41:02.068Z,78.40
2023-05-20T16:43:28.825Z,77.30
2023-05-20T16:45:55.848Z,76.10
2023-05-20T16:48:22.689Z,75.60
2023-05-20T16:50:49.466Z,75.40
2023-05-20T16:53:16.730Z,75.80
2023-05-20T16:55:43.592Z,76.10
2023-05-20T16:58:10.507Z,76.50
2023-05-20T17:00:37.226Z,76.80
2023-05-20T17:03:04.219Z,75.60
2023-05-20T17:05:31.357Z,75.00
2023-05-20T17:08:00.726Z,74.20
2023-05-20T17:10:28.907Z,73.60
2023-05-20T17:12:55.969Z,73.50
2023-05-20T17:15:23.601Z,73.30
2023-05-20T17:17:51.016Z,73.20
2023-05-20T17:20:17.855Z,73.00
2023-05-20T17:22:44.639Z,73.20
2023-05-20T17:25:11.523Z,73.30
2023-05-20T17:27:38.312Z,73.70
2023-05-20T17:30:05.519Z,73.60
2023-05-20T17:32:32.363Z,73.60
2023-05-20T17:34:59.093Z,73.60
2023-05-20T17:37:26.032Z,73.80
2023-05-20T17:39:53.079Z,73.50
2023-05-20T17:42:19.866Z,73.70
2023-05-20T17:44:46.584Z,73.80
2023-05-20T17:47:13.393Z,73.40
2023-05-20T17:49:40.177Z,73.30
2023-05-20T17:52:07.084Z,73.50
2023-05-20T17:54:33.850Z,74.20
2023-05-20T17:57:00.589Z,74.20
2023-05-20T17:59:27.312Z,74.10
2023-05-20T18:01:54.269Z,74.30
2023-05-20T18:04:21.827Z,74.40
2023-05-20T18:06:48.636Z,74.50
2023-05-20T18:09:15.460Z,74.80
2023-05-20T18:11:42.381Z,75.10
2023-05-20T18:14:09.136Z,75.30
2023-05-20T18:16:36.105Z,75.50
2023-05-20T18:19:03.246Z,76.00
2023-05-20T18:21:30.101Z,76.40
2023-05-20T18:23:56.936Z,76.60
2023-05-20T18:26:23.970Z,76.80
2023-05-20T18:28:50.982Z,77.20
2023-05-20T18:31:18.044Z,77.70
2023-05-20T18:33:44.794Z,78.30
2023-05-20T18:36:11.707Z,78.90
2023-05-20T18:38:41.165Z,79.30
2023-05-20T18:41:08.514Z,79.90
2023-05-20T18:43:35.551Z,80.40
2023-05-20T18:46:02.521Z,81.10
2023-05-20T18:48:29.470Z,81.80
2023-05-20T18:50:56.455Z,82.20
2023-05-20T18:53:23.728Z,82.80
2023-05-20T18:55:50.661Z,82.90
2023-05-20T18:58:17.373Z,83.30
2023-05-20T19:00:44.193Z,83.30
2023-05-20T19:03:11.541Z,83.70
2023-05-20T19:05:39.056Z,83.90
2023-05-20T19:08:06.321Z,84.60
2023-05-20T19:10:33.455Z,84.90
2023-05-20T19:13:00.425Z,85.20
2023-05-20T19:15:27.427Z,85.50
2023-05-20T19:17:54.378Z,85.90
2023-05-20T19:20:21.302Z,86.30
2023-05-20T19:22:48.056Z,86.60
2023-05-20T19:25:14.911Z,87.00
2023-05-20T19:27:41.614Z,87.30
2023-05-20T19:30:10.872Z,87.70
2023-05-20T19:32:38.603Z,88.10
2023-05-20T19:35:06.132Z,88.60
2023-05-20T19:37:33.168Z,90.00
2023-05-20T19:40:00.814Z,89.30
2023-05-20T19:42:29.096Z,89.90
2023-05-20T19:44:56.137Z,90.10
2023-05-20T19:47:23.045Z,90.20
2023-05-20T19:49:49.957Z,90.30
2023-05-20T19:52:16.731Z,90.50
2023-05-20T19:54:43.542Z,90.60
2023-05-20T19:57:10.244Z,90.70
2023-05-20T19:59:38.372Z,90.90
2023-05-20T20:02:05.900Z,91.10
2023-05-20T20:04:32.865Z,91.20
2023-05-20T20:07:00.052Z,91.40
2023-05-20T20:09:27.330Z,91.50
2023-05-20T20:11:54.337Z,91.60
2023-05-20T20:14:21.530Z,91.80
2023-05-20T20:16:49.236Z,91.80
2023-05-20T20:19:22.858Z,91.90
2023-05-20T20:21:53.027Z,92.00
2023-05-20T20:24:20.324Z,92.10
2023-05-20T20:26:47.588Z,92.30
2023-05-20T20:29:14.556Z,92.50
2023-05-20T20:31:41.631Z,92.60
2023-05-20T20:34:08.591Z,92.60
2023-05-20T20:36:35.369Z,92.60
2023-05-20T20:39:04.931Z,92.80
2023-05-20T20:41:32.127Z,92.90
2023-05-20T20:43:59.324Z,93.00
2023-05-20T20:46:27.637Z,93.10
2023-05-20T20:48:54.525Z,93.20
2023-05-20T20:51:21.283Z,93.30
2023-05-20T20:53:48.729Z,93.50
2023-05-20T20:56:15.808Z,93.50
2023-05-20T20:58:42.559Z,93.70
2023-05-20T21:01:10.057Z,93.70
2023-05-20T21:03:39.996Z,93.80
2023-05-20T21:06:07.454Z,94.00
2023-05-20T21:08:34.235Z,94.20
2023-05-20T21:11:01.011Z,94.40
2023-05-20T21:13:28.286Z,94.50
2023-05-20T21:15:55.024Z,94.70
2023-05-20T21:18:22.625Z,94.90
2023-05-20T21:20:49.807Z,95.10
2023-05-20T21:23:17.115Z,95.20
2023-05-20T21:25:43.906Z,95.30
2023-05-20T21:28:10.820Z,95.30
2023-05-20T21:30:37.814Z,95.50
2023-05-20T21:33:04.733Z,95.50
2023-05-20T21:35:31.570Z,95.70
2023-05-20T21:37:58.278Z,95.70
2023-05-20T21:40:25.052Z,95.90
2023-05-20T21:42:52.144Z,96.10
2023-05-20T21:45:18.866Z,96.10
2023-05-20T21:47:48.811Z,96.20
2023-05-20T21:50:15.574Z,96.20
2023-05-20T21:52:42.978Z,96.30
2023-05-20T21:55:10.601Z,96.40
2023-05-20T21:57:37.468Z,96.50
2023-05-20T22:00:09.481Z,96.60
2023-05-20T22:02:36.569Z,96.70
2023-05-20T22:05:04.789Z,96.80
2023-05-20T22:07:32.928Z,96.90
2023-05-20T22:10:00.264Z,97.10
2023-05-20T22:12:27.663Z,97.20
2023-05-20T22:14:54.581Z,97.30
2023-05-20T22:17:21.733Z,97.30
2023-05-20T22:19:49.876Z,97.50
2023-05-20T22:22:16.790Z,97.70
2023-05-20T22:24:43.570Z,97.80
2023-05-20T22:27:10.628Z,97.80
2023-05-20T22:29:37.393Z,97.90
2023-05-20T22:32:04.388Z,98.00
2023-05-20T22:34:31.137Z,98.10
2023-05-20T22:36:58.144Z,98.20
2023-05-20T22:39:24.915Z,98.20
2023-05-20T22:41:51.771Z,98.30
2023-05-20T22:44:18.458Z,98.50
2023-05-20T22:46:45.301Z,98.70
2023-05-20T22:49:12.860Z,98.80
2023-05-20T22:51:39.702Z,99.00
2023-05-20T22:54:07.043Z,99.20
2023-05-20T22:56:34.264Z,99.40
2023-05-20T22:59:01.151Z,99.50
2023-05-20T23:01:28.030Z,99.60
2023-05-20T23:03:55.039Z,99.70
2023-05-20T23:06:22.403Z,99.80
2023-05-20T23:08:49.268Z,99.90
2023-05-20T23:11:16.246Z,99.90
2023-05-20T23:13:43.049Z,99.90
2023-05-20T23:16:10.337Z,99.90
2023-05-20T23:18:37.163Z,99.90
2023-05-20T23:21:04.210Z,99.90
2023-05-20T23:23:32.263Z,99.90
2023-05-20T23:25:59.454Z,99.90
2023-05-20T23:28:26.306Z,99.90
2023-05-20T23:30:53.235Z,99.90
2023-05-20T23:33:24.837Z,99.90
2023-05-20T23:35:52.706Z,99.90
2023-05-20T23:38:19.800Z,99.90
2023-05-20T23:40:46.550Z,99.90
2023-05-20T23:43:13.327Z,99.90
2023-05-20T23:45:40.148Z,99.90
2023-05-20T23:48:09.885Z,99.90
2023-05-20T23:50:36.712Z,99.90
2023-05-20T23:53:03.645Z,99.90
2023-05-20T23:55:31.718Z,99.90
2023-05-20T23:57:58.540Z,99.90
